createdAt,value
2022-11-14T00:02:09.975Z,5.00
2022-11-14T00:06:16.675Z,4.90
2022-11-14T00:10:23.462Z,4.90
2022-11-14T00:14:30.428Z,4.90
2022-11-14T00:18:37.092Z,4.80
2022-11-14T00:22:43.734Z,4.70
2022-11-14T00:26:50.406Z,4.70
2022-11-14T00:30:57.069Z,4.70
2022-11-14T00:35:03.808Z,4.60
2022-11-14T00:39:14.454Z,4.60
2022-11-14T00:43:21.163Z,5.60
2022-11-14T00:47:27.896Z,4.70
2022-11-14T00:51:34.772Z,4.80
2022-11-14T00:55:42.889Z,4.80
2022-11-14T00:59:49.525Z,4.70
2022-11-14T01:03:56.285Z,4.70
2022-11-14T01:08:03.059Z,4.60
2022-11-14T01:12:09.773Z,4.50
2022-11-14T01:16:17.329Z,4.60
2022-11-14T01:20:24.068Z,4.50
2022-11-14T01:24:33.491Z,4.50
2022-11-14T01:28:41.011Z,4.40
2022-11-14T01:32:47.658Z,4.40
2022-11-14T01:36:54.321Z,5.50
2022-11-14T01:41:01.475Z,4.30
2022-11-14T01:45:50.498Z,4.20
2022-11-14T01:50:04.531Z,4.20
2022-11-14T01:54:17.579Z,4.20
2022-11-14T01:58:25.439Z,4.20
2022-11-14T02:02:32.149Z,4.20
2022-11-14T02:06:40.118Z,4.10
2022-11-14T02:10:46.797Z,4.00
2022-11-14T02:14:56.406Z,3.90
2022-11-14T02:19:03.196Z,3.90
2022-11-14T02:23:11.690Z,3.80
2022-11-14T02:27:18.488Z,3.80
2022-11-14T02:31:25.208Z,3.70
2022-11-14T02:35:31.870Z,3.70
2022-11-14T02:39:39.250Z,3.60
2022-11-14T02:43:45.974Z,3.50
2022-11-14T02:47:52.742Z,3.50
2022-11-14T02:51:59.503Z,3.40
2022-11-14T02:56:06.626Z,3.40
2022-11-14T03:00:15.345Z,3.30
2022-11-14T03:04:22.244Z,3.30
2022-11-14T03:08:29.203Z,3.40
2022-11-14T03:12:36.480Z,3.40
2022-11-14T03:16:43.167Z,3.30
2022-11-14T03:20:49.845Z,3.30
2022-11-14T03:24:56.713Z,3.30
2022-11-14T03:29:03.424Z,3.20
2022-11-14T03:33:10.097Z,3.20
2022-11-14T03:37:16.885Z,3.10
2022-11-14T03:41:23.608Z,3.10
2022-11-14T03:45:30.297Z,3.00
2022-11-14T03:49:36.979Z,2.90
2022-11-14T03:53:43.677Z,2.80
2022-11-14T03:57:50.663Z,2.70
2022-11-14T04:01:57.328Z,2.60
2022-11-14T04:06:04.552Z,2.50
2022-11-14T04:10:11.222Z,2.40
2022-11-14T04:14:18.175Z,2.40
2022-11-14T04:18:26.333Z,2.30
2022-11-14T04:22:33.136Z,2.20
2022-11-14T04:26:39.958Z,2.20
2022-11-14T04:30:46.735Z,2.10
2022-11-14T04:34:53.486Z,2.10
2022-11-14T04:39:00.589Z,2.00
2022-11-14T04:43:07.276Z,1.90
2022-11-14T04:47:13.960Z,1.80
2022-11-14T04:51:20.674Z,1.70
2022-11-14T04:55:27.360Z,1.70
2022-11-14T04:59:34.157Z,1.70
2022-11-14T05:03:40.883Z,1.70
2022-11-14T05:07:47.580Z,1.70
2022-11-14T05:11:54.271Z,1.70
2022-11-14T05:16:01.567Z,1.70
2022-11-14T05:20:08.725Z,1.70
2022-11-14T05:24:15.567Z,1.60
2022-11-14T05:28:22.232Z,1.60
2022-11-14T05:32:28.925Z,1.60
2022-11-14T05:36:35.612Z,1.60
2022-11-14T05:40:42.633Z,1.50
2022-11-14T05:44:49.456Z,1.50
2022-11-14T05:48:56.126Z,1.50
2022-11-14T05:53:02.823Z,1.40
2022-11-14T05:57:09.533Z,1.40
2022-11-14T06:01:18.744Z,1.30
2022-11-14T06:05:25.405Z,1.30
2022-11-14T06:09:32.065Z,1.20
2022-11-14T06:13:38.930Z,1.20
2022-11-14T06:17:45.837Z,1.20
2022-11-14T06:21:52.550Z,1.20
2022-11-14T06:26:05.077Z,1.10
2022-11-14T06:30:12.316Z,1.10
2022-11-14T06:34:19.177Z,1.00
2022-11-14T06:38:26.121Z,1.00
2022-11-14T06:42:32.864Z,1.00
2022-11-14T06:46:39.583Z,0.90
2022-11-14T06:50:52.460Z,0.90
2022-11-14T06:54:59.186Z,0.90
2022-11-14T06:59:05.852Z,0.90
2022-11-14T07:03:12.559Z,1.00
2022-11-14T07:07:19.371Z,1.00
2022-11-14T07:11:29.585Z,1.00
2022-11-14T07:15:36.288Z,1.00
2022-11-14T07:19:42.964Z,0.80
2022-11-14T07:23:49.860Z,0.80
2022-11-14T07:27:57.862Z,0.90
2022-11-14T07:32:04.863Z,1.00
2022-11-14T07:36:13.229Z,1.10
2022-11-14T07:40:19.945Z,1.20
2022-11-14T07:44:26.627Z,1.20
2022-11-14T07:48:33.948Z,1.30
2022-11-14T07:52:40.684Z,1.50
2022-11-14T07:56:47.367Z,1.60
2022-11-14T08:00:54.181Z,1.80
2022-11-14T08:05:01.311Z,1.90
2022-11-14T08:09:08.254Z,2.00
2022-11-14T08:13:31.819Z,2.10
2022-11-14T08:17:40.329Z,2.30
2022-11-14T08:21:47.091Z,2.50
2022-11-14T08:25:53.838Z,2.60
2022-11-14T08:30:00.581Z,2.80
2022-11-14T08:34:07.493Z,3.00
2022-11-14T08:38:14.347Z,3.10
2022-11-14T08:42:22.815Z,3.30
2022-11-14T08:46:29.503Z,3.40
2022-11-14T08:50:36.199Z,3.70
2022-11-14T08:54:42.888Z,3.90
2022-11-14T08:58:50.328Z,4.10
2022-11-14T09:02:57.069Z,4.40
2022-11-14T09:07:03.863Z,4.60
2022-11-14T09:11:11.686Z,4.80
2022-11-14T09:15:19.959Z,5.10
2022-11-14T09:19:26.621Z,5.30
2022-11-14T09:23:34.423Z,5.60
2022-11-14T09:27:41.130Z,5.90
2022-11-14T09:31:47.820Z,6.10
2022-11-14T09:36:02.956Z,6.40
2022-11-14T09:40:13.293Z,6.60
2022-11-14T09:44:41.602Z,6.90
2022-11-14T09:48:49.594Z,7.10
2022-11-14T09:52:58.878Z,7.40
2022-11-14T09:57:14.230Z,7.60
2022-11-14T10:01:45.579Z,7.80
2022-11-14T10:06:03.037Z,8.10
2022-11-14T10:10:38.702Z,8.30
2022-11-14T10:14:48.836Z,8.50
2022-11-14T10:19:23.175Z,8.70
2022-11-14T10:24:14.164Z,8.80
2022-11-14T10:28:30.226Z,8.90
2022-11-14T10:32:49.548Z,9.10
2022-11-14T10:37:00.989Z,9.40
2022-11-14T10:41:19.236Z,9.60
2022-11-14T10:46:01.805Z,10.30
2022-11-14T10:50:55.984Z,10.10
2022-11-14T10:55:13.694Z,10.10
2022-11-14T10:59:21.361Z,10.30
2022-11-14T11:03:44.473Z,10.30
2022-11-14T11:08:42.139Z,10.40
2022-11-14T11:12:37.096Z,10.50
2022-11-14T11:16:46.413Z,10.70
2022-11-14T11:21:09.976Z,10.80
2022-11-14T11:25:28.578Z,10.90
2022-11-14T11:29:35.261Z,10.90
2022-11-14T11:33:42.966Z,11.00
2022-11-14T11:37:59.203Z,11.10
2022-11-14T11:42:12.844Z,11.10
2022-11-14T11:46:43.795Z,11.20
2022-11-14T11:50:50.443Z,11.40
2022-11-14T11:55:13.733Z,11.40
2022-11-14T11:59:26.120Z,11.60
2022-11-14T12:03:34.593Z,11.60
2022-11-14T12:08:00.236Z,11.80
2022-11-14T12:12:45.452Z,11.80
2022-11-14T12:17:14.660Z,12.00
2022-11-14T12:21:21.274Z,11.80
2022-11-14T12:26:01.017Z,11.30
2022-11-14T12:30:13.662Z,11.00
2022-11-14T12:34:37.916Z,10.80
2022-11-14T12:38:54.895Z,10.70
2022-11-14T12:43:03.088Z,10.50
2022-11-14T12:47:09.717Z,10.40
2022-11-14T12:51:25.611Z,10.40
2022-11-14T12:55:32.345Z,10.30
2022-11-14T12:59:55.274Z,10.40
2022-11-14T13:04:24.980Z,10.20
2022-11-14T13:09:22.518Z,10.10
2022-11-14T13:13:48.241Z,10.10
2022-11-14T13:18:32.488Z,10.10
2022-11-14T13:22:44.881Z,10.10
2022-11-14T13:26:54.530Z,9.90
2022-11-14T13:31:16.692Z,9.80
2022-11-14T13:35:45.203Z,9.90
2022-11-14T13:40:05.657Z,9.80
2022-11-14T13:44:38.757Z,9.60
2022-11-14T13:48:51.278Z,9.40
2022-11-14T13:52:58.544Z,9.30
2022-11-14T13:57:26.331Z,9.30
2022-11-14T14:02:02.294Z,9.30
2022-11-14T14:06:43.386Z,9.30
2022-11-14T14:11:27.485Z,9.20
2022-11-14T14:15:43.631Z,9.10
2022-11-14T14:19:50.248Z,9.10
2022-11-14T14:24:07.039Z,9.10
2022-11-14T14:28:24.785Z,9.10
2022-11-14T14:32:31.496Z,9.00
2022-11-14T14:36:49.890Z,9.00
2022-11-14T14:40:57.481Z,9.00
2022-11-14T14:45:07.913Z,9.00
2022-11-14T14:49:23.739Z,9.00
2022-11-14T14:53:33.060Z,9.00
2022-11-14T14:57:39.761Z,9.00
2022-11-14T15:01:47.885Z,9.00
2022-11-14T15:06:05.955Z,9.00
2022-11-14T15:10:24.225Z,8.90
2022-11-14T15:14:35.575Z,9.00
2022-11-14T15:18:44.903Z,8.90
2022-11-14T15:23:18.881Z,8.90
2022-11-14T15:27:25.603Z,8.80
2022-11-14T15:31:35.817Z,8.90
2022-11-14T15:35:42.545Z,8.80
2022-11-14T15:39:49.559Z,8.80
2022-11-14T15:44:02.095Z,8.70
2022-11-14T15:48:15.616Z,8.70
2022-11-14T15:52:24.838Z,8.70
2022-11-14T15:56:31.493Z,8.70
2022-11-14T16:00:46.974Z,8.80
2022-11-14T16:04:54.290Z,8.80
2022-11-14T16:09:01.972Z,8.80
2022-11-14T16:13:08.777Z,8.80
2022-11-14T16:17:17.165Z,8.90
2022-11-14T16:21:23.964Z,8.80
2022-11-14T16:25:31.539Z,8.80
2022-11-14T16:29:38.250Z,8.80
2022-11-14T16:33:44.917Z,8.80
2022-11-14T16:37:52.269Z,8.80
2022-11-14T16:42:02.817Z,8.80
2022-11-14T16:46:11.305Z,8.80
2022-11-14T16:50:19.588Z,8.80
2022-11-14T16:54:26.441Z,8.80
2022-11-14T16:58:33.067Z,8.80
2022-11-14T17:02:42.855Z,8.80
2022-11-14T17:06:49.620Z,8.90
2022-11-14T17:10:56.296Z,8.90
2022-11-14T17:15:03.171Z,8.90
2022-11-14T17:19:09.881Z,8.90
2022-11-14T17:23:16.550Z,9.00
2022-11-14T17:27:23.212Z,9.00
2022-11-14T17:31:36.452Z,8.80
2022-11-14T17:35:44.481Z,8.70
2022-11-14T17:39:51.145Z,8.70
2022-11-14T17:44:01.908Z,8.60
2022-11-14T17:48:08.561Z,8.60
2022-11-14T17:52:15.298Z,8.70
2022-11-14T17:56:24.414Z,8.70
2022-11-14T18:00:31.103Z,8.70
2022-11-14T18:04:37.767Z,8.80
2022-11-14T18:08:44.827Z,8.80
2022-11-14T18:12:51.482Z,8.80
2022-11-14T18:17:12.288Z,8.80
2022-11-14T18:21:23.938Z,8.80
2022-11-14T18:25:31.481Z,8.90
2022-11-14T18:29:38.183Z,8.90
2022-11-14T18:33:44.883Z,8.90
2022-11-14T18:37:51.548Z,8.90
2022-11-14T18:42:00.555Z,8.90
2022-11-14T18:46:15.061Z,8.90
2022-11-14T18:50:21.811Z,8.90
2022-11-14T18:54:28.572Z,8.90
2022-11-14T18:58:36.589Z,8.90
2022-11-14T19:02:43.269Z,8.90
2022-11-14T19:06:50.056Z,8.90
2022-11-14T19:11:30.248Z,8.90
2022-11-14T19:15:38.092Z,8.90
2022-11-14T19:19:44.782Z,8.80
2022-11-14T19:23:51.485Z,8.90
2022-11-14T19:27:58.146Z,8.90
2022-11-14T19:32:05.402Z,8.90
2022-11-14T19:36:38.550Z,8.90
2022-11-14T19:40:50.882Z,8.90
2022-11-14T19:44:57.544Z,8.90
2022-11-14T19:49:05.231Z,8.90
2022-11-14T19:53:11.908Z,8.80
2022-11-14T19:57:18.595Z,8.80
2022-11-14T20:01:27.522Z,8.70
2022-11-14T20:05:34.345Z,8.60
2022-11-14T20:09:41.013Z,8.60
2022-11-14T20:13:48.117Z,8.40
2022-11-14T20:17:54.816Z,8.30
2022-11-14T20:22:01.621Z,8.10
2022-11-14T20:26:11.331Z,8.00
2022-11-14T20:30:18.255Z,7.90
2022-11-14T20:34:25.040Z,7.80
2022-11-14T20:38:32.208Z,7.70
2022-11-14T20:42:38.997Z,7.60
2022-11-14T20:46:45.676Z,7.50
2022-11-14T20:50:52.429Z,7.50
2022-11-14T20:55:00.386Z,7.40
2022-11-14T20:59:08.408Z,7.40
2022-11-14T21:03:15.044Z,7.30
2022-11-14T21:07:21.855Z,7.20
2022-11-14T21:11:28.572Z,7.10
2022-11-14T21:15:35.370Z,7.00
2022-11-14T21:19:42.024Z,7.00
2022-11-14T21:23:48.736Z,6.90
2022-11-14T21:27:55.514Z,6.80
2022-11-14T21:32:02.198Z,6.80
2022-11-14T21:36:37.607Z,6.80
2022-11-14T21:40:37.236Z,6.70
2022-11-14T21:44:43.909Z,6.60
2022-11-14T21:48:51.076Z,6.50
2022-11-14T21:52:57.727Z,6.40
2022-11-14T21:57:09.611Z,6.30
2022-11-14T22:01:37.965Z,6.30
2022-11-14T22:05:44.684Z,6.40
2022-11-14T22:09:51.420Z,6.40
2022-11-14T22:13:58.462Z,6.60
2022-11-14T22:18:05.210Z,6.80
2022-11-14T22:22:11.893Z,7.00
2022-11-14T22:26:18.636Z,7.10
2022-11-14T22:30:25.275Z,7.20
2022-11-14T22:34:31.938Z,7.30
2022-11-14T22:38:39.244Z,7.40
2022-11-14T22:42:45.899Z,7.50
2022-11-14T22:46:52.585Z,7.50
2022-11-14T22:51:20.965Z,7.60
2022-11-14T22:55:27.831Z,7.60
2022-11-14T22:59:34.498Z,7.70
2022-11-14T23:03:41.317Z,7.70
2022-11-14T23:07:47.998Z,7.80
2022-11-14T23:11:54.642Z,7.80
2022-11-14T23:16:01.315Z,7.80
2022-11-14T23:20:13.551Z,7.90
2022-11-14T23:24:22.852Z,7.90
2022-11-14T23:28:30.846Z,8.00
2022-11-14T23:32:37.552Z,8.00
2022-11-14T23:36:44.352Z,8.00
2022-11-14T23:41:01.567Z,8.00
2022-11-14T23:45:08.548Z,8.00
2022-11-14T23:49:15.191Z,8.00
2022-11-14T23:53:22.362Z,8.00
2022-11-14T23:57:29.040Z,8.00
